sensor_id;sensor_type;location;lat;lon;timestamp;pressure;altitude;pressure_sealevel;temperature;humidity
9141;BME280;46330;50.822;7.126;2023-03-19T00:00:51;100525.38;;;11.13;83.81
9141;BME280;46330;50.822;7.126;2023-03-19T00:03:19;100529.88;;;11.08;84.53
9141;BME280;46330;50.822;7.126;2023-03-19T00:05:50;100535.03;;;11.09;83.70
9141;BME280;46330;50.822;7.126;2023-03-19T00:08:19;100536.06;;;11.04;85.89
9141;BME280;46330;50.822;7.126;2023-03-19T00:10:48;100530.91;;;10.99;87.02
9141;BME280;46330;50.822;7.126;2023-03-19T00:13:16;100536.78;;;11.09;87.16
9141;BME280;46330;50.822;7.126;2023-03-19T00:15:44;100530.59;;;11.13;88.88
9141;BME280;46330;50.822;7.126;2023-03-19T00:18:14;100525.53;;;11.05;89.78
9141;BME280;46330;50.822;7.126;2023-03-19T00:20:43;100526.69;;;10.94;91.20
9141;BME280;46330;50.822;7.126;2023-03-19T00:23:11;100516.44;;;10.85;91.71
9141;BME280;46330;50.822;7.126;2023-03-19T00:25:39;100519.97;;;10.82;92.77
9141;BME280;46330;50.822;7.126;2023-03-19T00:28:08;100524.34;;;10.82;92.63
9141;BME280;46330;50.822;7.126;2023-03-19T00:30:35;100522.66;;;10.79;93.93
9141;BME280;46330;50.822;7.126;2023-03-19T00:33:04;100512.41;;;10.68;95.72
9141;BME280;46330;50.822;7.126;2023-03-19T00:35:33;100517.75;;;10.64;95.11
9141;BME280;46330;50.822;7.126;2023-03-19T00:38:02;100515.97;;;10.66;95.62
9141;BME280;46330;50.822;7.126;2023-03-19T00:40:30;100515.00;;;10.70;96.23
9141;BME280;46330;50.822;7.126;2023-03-19T00:42:59;100518.38;;;10.76;96.63
9141;BME280;46330;50.822;7.126;2023-03-19T00:45:27;100522.94;;;10.65;97.84
9141;BME280;46330;50.822;7.126;2023-03-19T00:47:56;100523.88;;;10.63;98.61
9141;BME280;46330;50.822;7.126;2023-03-19T00:50:24;100522.00;;;10.69;98.99
9141;BME280;46330;50.822;7.126;2023-03-19T00:52:53;100520.94;;;10.78;98.79
9141;BME280;46330;50.822;7.126;2023-03-19T00:55:22;100522.59;;;10.82;98.96
9141;BME280;46330;50.822;7.126;2023-03-19T00:57:51;100512.00;;;10.87;98.72
9141;BME280;46330;50.822;7.126;2023-03-19T01:00:19;100509.47;;;10.84;98.42
9141;BME280;46330;50.822;7.126;2023-03-19T01:02:47;100514.75;;;10.82;98.86
9141;BME280;46330;50.822;7.126;2023-03-19T01:05:15;100513.00;;;10.81;98.70
9141;BME280;46330;50.822;7.126;2023-03-19T01:07:43;100505.56;;;10.63;99.20
9141;BME280;46330;50.822;7.126;2023-03-19T01:10:12;100509.28;;;10.53;98.69
9141;BME280;46330;50.822;7.126;2023-03-19T01:12:40;100510.06;;;10.58;97.92
9141;BME280;46330;50.822;7.126;2023-03-19T01:15:10;100504.69;;;10.62;96.64
9141;BME280;46330;50.822;7.126;2023-03-19T01:17:38;100506.44;;;10.62;94.87
9141;BME280;46330;50.822;7.126;2023-03-19T01:20:06;100517.91;;;10.56;95.33
9141;BME280;46330;50.822;7.126;2023-03-19T01:22:39;100510.06;;;10.58;94.15
9141;BME280;46330;50.822;7.126;2023-03-19T01:25:09;100509.94;;;10.62;93.01
9141;BME280;46330;50.822;7.126;2023-03-19T01:27:42;100518.63;;;10.64;92.93
9141;BME280;46330;50.822;7.126;2023-03-19T01:30:12;100529.09;;;10.64;92.08
9141;BME280;46330;50.822;7.126;2023-03-19T01:33:09;100521.19;;;10.67;92.25
9141;BME280;46330;50.822;7.126;2023-03-19T01:35:51;100527.38;;;10.62;92.70
9141;BME280;46330;50.822;7.126;2023-03-19T01:38:23;100525.69;;;10.61;93.56
9141;BME280;46330;50.822;7.126;2023-03-19T01:40:53;100527.38;;;10.62;93.07
9141;BME280;46330;50.822;7.126;2023-03-19T01:43:24;100521.44;;;10.55;93.16
9141;BME280;46330;50.822;7.126;2023-03-19T01:46:23;100522.41;;;10.50;94.24
9141;BME280;46330;50.822;7.126;2023-03-19T01:49:12;100522.47;;;10.48;93.08
9141;BME280;46330;50.822;7.126;2023-03-19T01:51:45;100519.09;;;10.42;93.75
9141;BME280;46330;50.822;7.126;2023-03-19T01:54:34;100521.84;;;10.34;94.40
9141;BME280;46330;50.822;7.126;2023-03-19T01:57:23;100513.41;;;10.21;95.03
9141;BME280;46330;50.822;7.126;2023-03-19T02:00:09;100517.81;;;10.19;95.41
9141;BME280;46330;50.822;7.126;2023-03-19T02:02:45;100515.19;;;10.19;94.92
9141;BME280;46330;50.822;7.126;2023-03-19T02:05:33;100514.31;;;10.20;94.59
9141;BME280;46330;50.822;7.126;2023-03-19T02:08:06;100520.34;;;10.24;94.21
9141;BME280;46330;50.822;7.126;2023-03-19T02:10:38;100523.91;;;10.20;93.83
9141;BME280;46330;50.822;7.126;2023-03-19T02:13:07;100510.13;;;10.10;94.64
9141;BME280;46330;50.822;7.126;2023-03-19T02:15:36;100525.09;;;10.02;94.19
9141;BME280;46330;50.822;7.126;2023-03-19T02:18:05;100523.38;;;10.01;95.00
9141;BME280;46330;50.822;7.126;2023-03-19T02:20:43;100519.00;;;10.02;94.25
9141;BME280;46330;50.822;7.126;2023-03-19T02:23:21;100519.81;;;10.04;94.34
9141;BME280;46330;50.822;7.126;2023-03-19T02:26:08;100520.75;;;10.01;95.02
9141;BME280;46330;50.822;7.126;2023-03-19T02:28:39;100515.59;;;9.97;94.79
9141;BME280;46330;50.822;7.126;2023-03-19T02:31:14;100520.88;;;9.94;95.55
9141;BME280;46330;50.822;7.126;2023-03-19T02:33:44;100518.19;;;9.98;94.78
9141;BME280;46330;50.822;7.126;2023-03-19T02:36:14;100515.75;;;9.89;95.82
9141;BME280;46330;50.822;7.126;2023-03-19T02:38:43;100519.22;;;9.90;95.92
9141;BME280;46330;50.822;7.126;2023-03-19T02:41:14;100513.97;;;9.91;96.15
9141;BME280;46330;50.822;7.126;2023-03-19T02:43:42;100516.56;;;9.91;96.57
9141;BME280;46330;50.822;7.126;2023-03-19T02:46:11;100520.88;;;9.94;96.36
9141;BME280;46330;50.822;7.126;2023-03-19T02:48:39;100512.97;;;9.98;95.27
9141;BME280;46330;50.822;7.126;2023-03-19T02:51:07;100520.69;;;10.04;94.37
9141;BME280;46330;50.822;7.126;2023-03-19T02:53:35;100514.59;;;10.04;93.86
9141;BME280;46330;50.822;7.126;2023-03-19T02:56:04;100527.66;;;10.04;94.17
9141;BME280;46330;50.822;7.126;2023-03-19T02:58:33;100515.41;;;10.06;94.61
9141;BME280;46330;50.822;7.126;2023-03-19T03:01:01;100513.72;;;10.03;94.33
9141;BME280;46330;50.822;7.126;2023-03-19T03:03:30;100525.00;;;10.07;93.66
9141;BME280;46330;50.822;7.126;2023-03-19T03:05:58;100514.47;;;10.10;93.55
9141;BME280;46330;50.822;7.126;2023-03-19T03:08:25;100514.53;;;10.08;93.28
9141;BME280;46330;50.822;7.126;2023-03-19T03:10:54;100515.34;;;10.10;93.07
9141;BME280;46330;50.822;7.126;2023-03-19T03:13:23;100515.31;;;10.13;91.55
9141;BME280;46330;50.822;7.126;2023-03-19T03:15:52;100516.13;;;10.15;92.25
9141;BME280;46330;50.822;7.126;2023-03-19T03:18:20;100519.66;;;10.14;91.93
9141;BME280;46330;50.822;7.126;2023-03-19T03:20:47;100519.56;;;10.19;92.16
9141;BME280;46330;50.822;7.126;2023-03-19T03:23:15;100516.88;;;10.22;91.24
9141;BME280;46330;50.822;7.126;2023-03-19T03:25:43;100520.38;;;10.22;91.54
9141;BME280;46330;50.822;7.126;2023-03-19T03:28:11;100526.41;;;10.26;91.66
9141;BME280;46330;50.822;7.126;2023-03-19T03:30:39;100522.91;;;10.25;91.06
9141;BME280;46330;50.822;7.126;2023-03-19T03:33:08;100533.25;;;10.32;91.10
9141;BME280;46330;50.822;7.126;2023-03-19T03:35:36;100530.75;;;10.27;91.16
9141;BME280;46330;50.822;7.126;2023-03-19T03:38:04;100529.75;;;10.31;91.20
9141;BME280;46330;50.822;7.126;2023-03-19T03:40:32;100523.66;;;10.31;90.88
9141;BME280;46330;50.822;7.126;2023-03-19T03:43:02;100531.50;;;10.31;89.96
9141;BME280;46330;50.822;7.126;2023-03-19T03:45:32;100527.06;;;10.36;89.91
9141;BME280;46330;50.822;7.126;2023-03-19T03:48:01;100537.41;;;10.40;89.75
9141;BME280;46330;50.822;7.126;2023-03-19T03:50:31;100544.38;;;10.43;89.24
9141;BME280;46330;50.822;7.126;2023-03-19T03:53:05;100547.75;;;10.46;88.87
9141;BME280;46330;50.822;7.126;2023-03-19T03:55:33;100549.56;;;10.44;89.53
9141;BME280;46330;50.822;7.126;2023-03-19T03:58:01;100550.50;;;10.40;90.23
9141;BME280;46330;50.822;7.126;2023-03-19T04:00:29;100547.88;;;10.40;89.88
9141;BME280;46330;50.822;7.126;2023-03-19T04:02:58;100545.31;;;10.39;90.18
9141;BME280;46330;50.822;7.126;2023-03-19T04:05:26;100543.63;;;10.36;90.35
9141;BME280;46330;50.822;7.126;2023-03-19T04:07:55;100547.00;;;10.41;89.45
9141;BME280;46330;50.822;7.126;2023-03-19T04:10:24;100544.38;;;10.43;90.11
9141;BME280;46330;50.822;7.126;2023-03-19T04:12:58;100545.19;;;10.43;90.87
9141;BME280;46330;50.822;7.126;2023-03-19T04:15:29;100545.19;;;10.43;90.94
9141;BME280;46330;50.822;7.126;2023-03-19T04:17:58;100554.81;;;10.43;89.84
9141;BME280;46330;50.822;7.126;2023-03-19T04:20:26;100555.72;;;10.42;90.24
9141;BME280;46330;50.822;7.126;2023-03-19T04:22:56;100563.63;;;10.39;91.18
9141;BME280;46330;50.822;7.126;2023-03-19T04:25:23;100573.25;;;10.35;91.09
9141;BME280;46330;50.822;7.126;2023-03-19T04:27:51;100564.59;;;10.33;91.21
9141;BME280;46330;50.822;7.126;2023-03-19T04:30:19;100573.44;;;10.26;90.78
9141;BME280;46330;50.822;7.126;2023-03-19T04:32:47;100576.13;;;10.23;90.57
9141;BME280;46330;50.822;7.126;2023-03-19T04:35:15;100575.34;;;10.18;90.86
9141;BME280;46330;50.822;7.126;2023-03-19T04:37:44;100582.38;;;10.13;91.30
9141;BME280;46330;50.822;7.126;2023-03-19T04:40:16;100568.53;;;10.08;91.43
9141;BME280;46330;50.822;7.126;2023-03-19T04:42:46;100568.53;;;10.08;91.14
9141;BME280;46330;50.822;7.126;2023-03-19T04:45:27;100566.69;;;10.13;90.35
9141;BME280;46330;50.822;7.126;2023-03-19T04:47:55;100562.34;;;10.12;90.46
9141;BME280;46330;50.822;7.126;2023-03-19T04:50:23;100565.84;;;10.14;90.28
9141;BME280;46330;50.822;7.126;2023-03-19T04:52:52;100573.56;;;10.18;89.61
9141;BME280;46330;50.822;7.126;2023-03-19T04:55:23;100570.16;;;10.15;89.92
9141;BME280;46330;50.822;7.126;2023-03-19T04:58:01;100572.78;;;10.12;90.44
9141;BME280;46330;50.822;7.126;2023-03-19T05:00:32;100571.09;;;10.11;89.94
9141;BME280;46330;50.822;7.126;2023-03-19T05:03:01;100577.25;;;10.08;90.45
9141;BME280;46330;50.822;7.126;2023-03-19T05:05:30;100586.78;;;10.09;90.16
9141;BME280;46330;50.822;7.126;2023-03-19T05:08:00;100591.13;;;10.10;90.21
9141;BME280;46330;50.822;7.126;2023-03-19T05:10:30;100587.75;;;10.05;90.38
9141;BME280;46330;50.822;7.126;2023-03-19T05:12:59;100586.78;;;10.09;89.82
9141;BME280;46330;50.822;7.126;2023-03-19T05:15:26;100579.00;;;10.06;90.54
9141;BME280;46330;50.822;7.126;2023-03-19T05:18:01;100586.84;;;10.06;90.13
9141;BME280;46330;50.822;7.126;2023-03-19T05:20:35;100593.03;;;10.01;90.91
9141;BME280;46330;50.822;7.126;2023-03-19T05:23:08;100590.47;;;9.99;90.71
9141;BME280;46330;50.822;7.126;2023-03-19T05:25:45;100583.59;;;9.94;91.05
9141;BME280;46330;50.822;7.126;2023-03-19T05:28:19;100590.59;;;9.92;90.88
9141;BME280;46330;50.822;7.126;2023-03-19T05:30:47;100600.22;;;9.88;91.05
9141;BME280;46330;50.822;7.126;2023-03-19T05:33:22;100599.38;;;9.88;91.10
9141;BME280;46330;50.822;7.126;2023-03-19T05:35:51;100598.50;;;9.87;91.15
9141;BME280;46330;50.822;7.126;2023-03-19T05:38:28;100602.94;;;9.82;92.05
9141;BME280;46330;50.822;7.126;2023-03-19T05:41:05;100606.47;;;9.80;92.46
9141;BME280;46330;50.822;7.126;2023-03-19T05:43:42;100600.38;;;9.81;92.55
9141;BME280;46330;50.822;7.126;2023-03-19T05:46:18;100603.88;;;9.80;93.53
9141;BME280;46330;50.822;7.126;2023-03-19T05:48:46;100608.22;;;9.81;93.47
9141;BME280;46330;50.822;7.126;2023-03-19T05:51:15;100609.03;;;9.83;93.60
9141;BME280;46330;50.822;7.126;2023-03-19T05:53:45;100607.34;;;9.80;93.13
9141;BME280;46330;50.822;7.126;2023-03-19T05:56:35;100615.97;;;9.85;92.86
9141;BME280;46330;50.822;7.126;2023-03-19T05:59:20;100608.94;;;9.89;93.46
9141;BME280;46330;50.822;7.126;2023-03-19T06:02:03;100607.16;;;9.91;93.67
9141;BME280;46330;50.822;7.126;2023-03-19T06:04:32;100615.91;;;9.88;94.09
9141;BME280;46330;50.822;7.126;2023-03-19T06:07:00;100614.13;;;9.90;94.46
9141;BME280;46330;50.822;7.126;2023-03-19T06:09:30;100622.78;;;9.94;94.83
9141;BME280;46330;50.822;7.126;2023-03-19T06:11:59;100624.44;;;9.99;94.36
9141;BME280;46330;50.822;7.126;2023-03-19T06:15:02;100632.28;;;9.99;95.39
9141;BME280;46330;50.822;7.126;2023-03-19T06:17:36;100630.41;;;10.06;94.95
9141;BME280;46330;50.822;7.126;2023-03-19T06:20:09;100621.63;;;10.11;94.42
9141;BME280;46330;50.822;7.126;2023-03-19T06:22:37;100628.44;;;10.20;94.18
9141;BME280;46330;50.822;7.126;2023-03-19T06:25:06;100627.47;;;10.27;94.56
9141;BME280;46330;50.822;7.126;2023-03-19T06:27:37;100636.94;;;10.33;94.00
9141;BME280;46330;50.822;7.126;2023-03-19T06:30:22;100637.09;;;10.23;93.91
9141;BME280;46330;50.822;7.126;2023-03-19T06:32:51;100636.88;;;10.36;93.12
9141;BME280;46330;50.822;7.126;2023-03-19T06:35:20;100640.16;;;10.47;91.59
9141;BME280;46330;50.822;7.126;2023-03-19T06:37:48;100636.41;;;10.60;91.92
9141;BME280;46330;50.822;7.126;2023-03-19T06:40:16;100642.31;;;10.71;91.68
9141;BME280;46330;50.822;7.126;2023-03-19T06:42:46;100649.19;;;10.75;91.55
9141;BME280;46330;50.822;7.126;2023-03-19T06:45:15;100653.47;;;10.79;92.25
9141;BME280;46330;50.822;7.126;2023-03-19T06:47:45;100663.00;;;10.83;91.96
9141;BME280;46330;50.822;7.126;2023-03-19T06:50:14;100658.59;;;10.84;91.22
9141;BME280;46330;50.822;7.126;2023-03-19T06:52:43;100648.91;;;10.89;89.64
9141;BME280;46330;50.822;7.126;2023-03-19T06:55:12;100654.22;;;10.84;89.47
9141;BME280;46330;50.822;7.126;2023-03-19T06:57:40;100657.59;;;10.91;88.78
9141;BME280;46330;50.822;7.126;2023-03-19T07:00:10;100654.84;;;10.97;88.30
9141;BME280;46330;50.822;7.126;2023-03-19T07:02:39;100666.31;;;10.91;88.70
9141;BME280;46330;50.822;7.126;2023-03-19T07:05:07;100661.91;;;10.93;88.58
9141;BME280;46330;50.822;7.126;2023-03-19T07:07:36;100662.75;;;10.95;88.49
9141;BME280;46330;50.822;7.126;2023-03-19T07:10:04;100666.09;;;11.02;88.47
9141;BME280;46330;50.822;7.126;2023-03-19T07:12:33;100672.88;;;11.10;89.13
9141;BME280;46330;50.822;7.126;2023-03-19T07:15:01;100679.69;;;11.19;88.06
9141;BME280;46330;50.822;7.126;2023-03-19T07:17:31;100679.53;;;11.26;87.91
9141;BME280;46330;50.822;7.126;2023-03-19T07:19:59;100684.56;;;11.36;87.92
9141;BME280;46330;50.822;7.126;2023-03-19T07:22:27;100687.22;;;11.34;87.69
9141;BME280;46330;50.822;7.126;2023-03-19T07:24:55;100692.34;;;11.39;87.83
9141;BME280;46330;50.822;7.126;2023-03-19T07:27:23;100694.00;;;11.43;87.27
9141;BME280;46330;50.822;7.126;2023-03-19T07:29:51;100691.38;;;11.43;86.91
9141;BME280;46330;50.822;7.126;2023-03-19T07:32:21;100687.84;;;11.45;86.80
9141;BME280;46330;50.822;7.126;2023-03-19T07:34:50;100688.41;;;11.59;86.27
9141;BME280;46330;50.822;7.126;2023-03-19T07:37:18;100687.28;;;11.71;86.02
9141;BME280;46330;50.822;7.126;2023-03-19T07:39:48;100690.69;;;11.74;84.94
9141;BME280;46330;50.822;7.126;2023-03-19T07:42:16;100700.06;;;11.86;84.90
9141;BME280;46330;50.822;7.126;2023-03-19T07:44:44;100700.88;;;11.88;85.00
9141;BME280;46330;50.822;7.126;2023-03-19T07:47:12;100694.75;;;11.88;85.00
9141;BME280;46330;50.822;7.126;2023-03-19T07:49:56;100704.28;;;11.90;84.88
9141;BME280;46330;50.822;7.126;2023-03-19T07:52:24;100690.25;;;11.93;84.00
9141;BME280;46330;50.822;7.126;2023-03-19T07:54:53;100693.97;;;11.84;83.90
9141;BME280;46330;50.822;7.126;2023-03-19T07:57:21;100695.69;;;11.85;83.82
9141;BME280;46330;50.822;7.126;2023-03-19T07:59:51;100695.31;;;12.00;83.85
9141;BME280;46330;50.822;7.126;2023-03-19T08:02:19;100687.44;;;12.02;83.42
9141;BME280;46330;50.822;7.126;2023-03-19T08:04:49;100686.28;;;12.13;83.30
9141;BME280;46330;50.822;7.126;2023-03-19T08:07:19;100688.13;;;12.08;83.02
9141;BME280;46330;50.822;7.126;2023-03-19T08:09:47;100691.38;;;12.18;83.45
9141;BME280;46330;50.822;7.126;2023-03-19T08:12:15;100689.75;;;12.14;83.06
9141;BME280;46330;50.822;7.126;2023-03-19T08:14:42;100687.63;;;12.28;82.93
9141;BME280;46330;50.822;7.126;2023-03-19T08:17:10;100676.97;;;12.34;81.91
9141;BME280;46330;50.822;7.126;2023-03-19T08:19:38;100692.94;;;12.59;81.39
9141;BME280;46330;50.822;7.126;2023-03-19T08:22:07;100692.25;;;12.52;82.15
9141;BME280;46330;50.822;7.126;2023-03-19T08:24:36;100691.53;;;12.79;80.78
9141;BME280;46330;50.822;7.126;2023-03-19T08:27:04;100690.94;;;12.68;80.66
9141;BME280;46330;50.822;7.126;2023-03-19T08:29:33;100694.44;;;12.67;81.28
9141;BME280;46330;50.822;7.126;2023-03-19T08:32:01;100698.69;;;12.73;81.09
9141;BME280;46330;50.822;7.126;2023-03-19T08:34:29;100700.81;;;12.91;80.39
9141;BME280;46330;50.822;7.126;2023-03-19T08:36:57;100692.28;;;12.83;79.34
9141;BME280;46330;50.822;7.126;2023-03-19T08:39:25;100704.34;;;12.90;79.92
9141;BME280;46330;50.822;7.126;2023-03-19T08:41:54;100706.63;;;13.02;79.75
9141;BME280;46330;50.822;7.126;2023-03-19T08:44:23;100703.72;;;13.13;79.12
9141;BME280;46330;50.822;7.126;2023-03-19T08:46:51;100707.22;;;13.13;78.57
9141;BME280;46330;50.822;7.126;2023-03-19T08:49:19;100713.78;;;13.28;78.16
9141;BME280;46330;50.822;7.126;2023-03-19T08:51:47;100718.59;;;13.43;78.95
9141;BME280;46330;50.822;7.126;2023-03-19T08:54:15;100725.88;;;13.33;78.14
9141;BME280;46330;50.822;7.126;2023-03-19T08:56:43;100726.66;;;13.37;77.28
9141;BME280;46330;50.822;7.126;2023-03-19T08:59:12;100723.16;;;13.36;77.65
9141;BME280;46330;50.822;7.126;2023-03-19T09:01:40;100723.78;;;13.15;76.02
9141;BME280;46330;50.822;7.126;2023-03-19T09:04:08;100722.44;;;13.31;76.58
9141;BME280;46330;50.822;7.126;2023-03-19T09:06:36;100734.09;;;12.89;77.51
9141;BME280;46330;50.822;7.126;2023-03-19T09:09:03;100736.34;;;13.04;78.61
9141;BME280;46330;50.822;7.126;2023-03-19T09:11:31;100736.66;;;13.24;78.37
9141;BME280;46330;50.822;7.126;2023-03-19T09:14:00;100727.81;;;13.27;77.22
9141;BME280;46330;50.822;7.126;2023-03-19T09:16:29;100732.84;;;13.04;78.21
9141;BME280;46330;50.822;7.126;2023-03-19T09:18:57;100730.97;;;13.09;78.41
9141;BME280;46330;50.822;7.126;2023-03-19T09:21:25;100736.19;;;13.10;78.58
9141;BME280;46330;50.822;7.126;2023-03-19T09:23:53;100748.72;;;13.31;78.10
9141;BME280;46330;50.822;7.126;2023-03-19T09:26:21;100736.88;;;13.46;78.09
9141;BME280;46330;50.822;7.126;2023-03-19T09:28:49;100744.19;;;13.66;76.18
9141;BME280;46330;50.822;7.126;2023-03-19T09:31:17;100738.50;;;13.79;76.08
9141;BME280;46330;50.822;7.126;2023-03-19T09:33:46;100740.94;;;13.27;76.96
9141;BME280;46330;50.822;7.126;2023-03-19T09:36:14;100748.13;;;13.20;78.98
9141;BME280;46330;50.822;7.126;2023-03-19T09:38:42;100742.84;;;13.22;80.57
9141;BME280;46330;50.822;7.126;2023-03-19T09:41:14;100740.97;;;13.56;80.77
9141;BME280;46330;50.822;7.126;2023-03-19T09:43:56;100752.84;;;13.69;81.35
9141;BME280;46330;50.822;7.126;2023-03-19T09:46:28;100755.94;;;13.23;80.49
9141;BME280;46330;50.822;7.126;2023-03-19T09:49:05;100757.97;;;13.44;80.57
9141;BME280;46330;50.822;7.126;2023-03-19T09:51:42;100757.38;;;13.35;81.10
9141;BME280;46330;50.822;7.126;2023-03-19T09:54:24;100761.41;;;13.76;82.16
9141;BME280;46330;50.822;7.126;2023-03-19T09:56:53;100761.81;;;14.19;81.21
9141;BME280;46330;50.822;7.126;2023-03-19T09:59:24;100758.88;;;14.00;81.09
9141;BME280;46330;50.822;7.126;2023-03-19T10:01:57;100757.75;;;14.08;82.59
9141;BME280;46330;50.822;7.126;2023-03-19T10:04:42;100759.50;;;14.09;81.73
9141;BME280;46330;50.822;7.126;2023-03-19T10:07:21;100770.41;;;13.67;82.96
9141;BME280;46330;50.822;7.126;2023-03-19T10:10:10;100768.03;;;13.60;83.33
9141;BME280;46330;50.822;7.126;2023-03-19T10:12:51;100771.72;;;13.54;82.55
9141;BME280;46330;50.822;7.126;2023-03-19T10:15:27;100774.38;;;13.22;84.84
9141;BME280;46330;50.822;7.126;2023-03-19T10:17:58;100776.97;;;12.89;86.60
9141;BME280;46330;50.822;7.126;2023-03-19T10:20:36;100768.66;;;13.06;88.78
9141;BME280;46330;50.822;7.126;2023-03-19T10:23:23;100778.59;;;12.95;88.60
9141;BME280;46330;50.822;7.126;2023-03-19T10:25:55;100765.63;;;13.21;87.86
9141;BME280;46330;50.822;7.126;2023-03-19T10:28:26;100767.56;;;13.45;85.25
9141;BME280;46330;50.822;7.126;2023-03-19T10:31:03;100767.81;;;14.50;81.76
9141;BME280;46330;50.822;7.126;2023-03-19T10:33:41;100773.59;;;14.86;78.35
9141;BME280;46330;50.822;7.126;2023-03-19T10:36:12;100770.19;;;16.02;74.41
9141;BME280;46330;50.822;7.126;2023-03-19T10:38:42;100776.03;;;16.74;71.75
9141;BME280;46330;50.822;7.126;2023-03-19T10:41:19;100770.53;;;17.78;67.99
9141;BME280;46330;50.822;7.126;2023-03-19T10:43:53;100773.66;;;16.46;70.32
9141;BME280;46330;50.822;7.126;2023-03-19T10:46:21;100772.88;;;15.55;74.82
9141;BME280;46330;50.822;7.126;2023-03-19T10:48:49;100776.56;;;14.76;78.92
9141;BME280;46330;50.822;7.126;2023-03-19T10:51:21;100779.97;;;14.79;79.37
9141;BME280;46330;50.822;7.126;2023-03-19T10:53:52;100773.72;;;14.57;79.99
9141;BME280;46330;50.822;7.126;2023-03-19T10:56:23;100772.25;;;14.48;79.20
9141;BME280;46330;50.822;7.126;2023-03-19T10:58:58;100779.84;;;14.30;78.82
9141;BME280;46330;50.822;7.126;2023-03-19T11:01:30;100773.41;;;13.84;80.91
9141;BME280;46330;50.822;7.126;2023-03-19T11:03:59;100778.81;;;14.08;81.52
9141;BME280;46330;50.822;7.126;2023-03-19T11:06:32;100775.19;;;14.12;80.62
9141;BME280;46330;50.822;7.126;2023-03-19T11:09:12;100773.91;;;14.23;82.12
9141;BME280;46330;50.822;7.126;2023-03-19T11:11:43;100772.41;;;14.44;80.90
9141;BME280;46330;50.822;7.126;2023-03-19T11:14:18;100782.47;;;14.30;81.61
9141;BME280;46330;50.822;7.126;2023-03-19T11:16:50;100785.00;;;14.07;81.04
9141;BME280;46330;50.822;7.126;2023-03-19T11:19:24;100788.69;;;14.29;81.25
9141;BME280;46330;50.822;7.126;2023-03-19T11:22:08;100780.97;;;14.23;82.59
9141;BME280;46330;50.822;7.126;2023-03-19T11:24:38;100789.41;;;14.05;82.53
9141;BME280;46330;50.822;7.126;2023-03-19T11:27:08;100787.53;;;14.10;82.92
9141;BME280;46330;50.822;7.126;2023-03-19T11:29:40;100786.88;;;14.57;81.47
9141;BME280;46330;50.822;7.126;2023-03-19T11:32:19;100784.69;;;14.70;80.35
9141;BME280;46330;50.822;7.126;2023-03-19T11:34:52;100791.03;;;14.90;77.50
9141;BME280;46330;50.822;7.126;2023-03-19T11:37:29;100781.16;;;14.71;80.40
9141;BME280;46330;50.822;7.126;2023-03-19T11:40:08;100782.63;;;14.53;79.63
9141;BME280;46330;50.822;7.126;2023-03-19T11:42:58;100777.28;;;14.56;78.98
9141;BME280;46330;50.822;7.126;2023-03-19T11:45:34;100779.63;;;14.64;78.98
9141;BME280;46330;50.822;7.126;2023-03-19T11:48:23;100776.56;;;14.76;78.51
9141;BME280;46330;50.822;7.126;2023-03-19T11:51:06;100768.00;;;14.71;77.38
9141;BME280;46330;50.822;7.126;2023-03-19T11:53:46;100763.34;;;15.75;74.31
9141;BME280;46330;50.822;7.126;2023-03-19T11:56:33;100760.47;;;15.81;72.27
9141;BME280;46330;50.822;7.126;2023-03-19T11:59:37;100759.75;;;16.21;71.12
9141;BME280;46330;50.822;7.126;2023-03-19T12:02:24;100753.91;;;16.56;68.68
9141;BME280;46330;50.822;7.126;2023-03-19T12:05:02;100754.50;;;15.97;69.16
9141;BME280;46330;50.822;7.126;2023-03-19T12:07:37;100756.31;;;16.19;69.47
9141;BME280;46330;50.822;7.126;2023-03-19T12:10:26;100757.13;;;16.41;68.65
9141;BME280;46330;50.822;7.126;2023-03-19T12:13:05;100757.47;;;16.55;69.70
9141;BME280;46330;50.822;7.126;2023-03-19T12:15:40;100757.59;;;16.08;70.94
9141;BME280;46330;50.822;7.126;2023-03-19T12:18:21;100756.63;;;16.75;69.07
9141;BME280;46330;50.822;7.126;2023-03-19T12:21:00;100758.09;;;16.18;70.71
9141;BME280;46330;50.822;7.126;2023-03-19T12:23:42;100762.66;;;15.91;72.44
9141;BME280;46330;50.822;7.126;2023-03-19T12:26:22;100757.59;;;15.87;73.10
9141;BME280;46330;50.822;7.126;2023-03-19T12:28:57;100760.19;;;15.65;72.51
9141;BME280;46330;50.822;7.126;2023-03-19T12:31:52;100750.41;;;16.34;72.56
9141;BME280;46330;50.822;7.126;2023-03-19T12:34:27;100750.91;;;16.43;71.31
9141;BME280;46330;50.822;7.126;2023-03-19T12:37:07;100754.53;;;17.03;68.03
9141;BME280;46330;50.822;7.126;2023-03-19T12:39:43;100741.97;;;17.65;65.28
9141;BME280;46330;50.822;7.126;2023-03-19T12:42:18;100744.09;;;17.95;65.34
9141;BME280;46330;50.822;7.126;2023-03-19T12:44:51;100748.13;;;16.68;67.20
9141;BME280;46330;50.822;7.126;2023-03-19T12:47:24;100744.44;;;16.07;69.35
9141;BME280;46330;50.822;7.126;2023-03-19T12:50:00;100743.75;;;16.25;69.05
9141;BME280;46330;50.822;7.126;2023-03-19T12:52:33;100740.00;;;16.51;68.56
9141;BME280;46330;50.822;7.126;2023-03-19T12:55:05;100732.47;;;16.20;68.50
9141;BME280;46330;50.822;7.126;2023-03-19T12:57:44;100739.19;;;15.39;71.90
9141;BME280;46330;50.822;7.126;2023-03-19T13:00:16;100745.88;;;15.49;72.61
9141;BME280;46330;50.822;7.126;2023-03-19T13:02:50;100746.66;;;15.03;74.52
9141;BME280;46330;50.822;7.126;2023-03-19T13:05:27;100750.78;;;15.10;76.69
9141;BME280;46330;50.822;7.126;2023-03-19T13:08:02;100750.00;;;14.83;78.23
9141;BME280;46330;50.822;7.126;2023-03-19T13:10:31;100756.59;;;14.70;80.34
9141;BME280;46330;50.822;7.126;2023-03-19T13:13:09;100743.19;;;14.51;81.23
9141;BME280;46330;50.822;7.126;2023-03-19T13:15:44;100742.44;;;14.48;84.55
9141;BME280;46330;50.822;7.126;2023-03-19T13:18:22;100745.91;;;14.75;85.59
9141;BME280;46330;50.822;7.126;2023-03-19T13:21:08;100743.91;;;14.57;84.14
9141;BME280;46330;50.822;7.126;2023-03-19T13:23:42;100743.03;;;14.02;85.58
9141;BME280;46330;50.822;7.126;2023-03-19T13:26:13;100744.88;;;14.00;85.61